Alligator, Mississippi
Current Conditions -  °F | °C
As of 7:35 PM on Sunday 23 Nov 2014 (Local Time) from KCKM Reporting Station
Clear Clear  
Wind Chill: 61°   Ceiling: Unl
Heat Index: 61°   Visibility: 10mi
Dew Point: 61°   Wind: 10mph
Humidity: 100%   Direction: 180°S
Pressure: 29.49"   Gusts: NA
Location:  34.09°N, 90.72°W
Report Text: KCKM 240135Z AUTO 18009KT 10SM CLR 16/16 A2949 RMK AO1
Loading
Personal Weather Stations






























Interactive Weather Map New forecast layout! Learn more

10-Day Weather Forecast

Advertisements
Track Severe Weather on mobile